sensor_id;sensor_type;location;lat;lon;timestamp;temperature;humidity
19090;DHT22;9677;50.656;13.064;2023-11-19T00:00:30;8.30;59.40
19090;DHT22;9677;50.656;13.064;2023-11-19T00:03:00;8.30;59.40
19090;DHT22;9677;50.656;13.064;2023-11-19T00:05:29;8.30;59.50
19090;DHT22;9677;50.656;13.064;2023-11-19T00:07:57;8.30;59.50
19090;DHT22;9677;50.656;13.064;2023-11-19T00:10:25;8.30;59.50
19090;DHT22;9677;50.656;13.064;2023-11-19T00:12:53;8.30;59.60
19090;DHT22;9677;50.656;13.064;2023-11-19T00:15:23;8.20;59.60
19090;DHT22;9677;50.656;13.064;2023-11-19T00:17:52;8.20;59.70
19090;DHT22;9677;50.656;13.064;2023-11-19T00:20:21;8.20;59.60
19090;DHT22;9677;50.656;13.064;2023-11-19T00:22:50;8.20;59.60
19090;DHT22;9677;50.656;13.064;2023-11-19T00:25:20;8.20;59.70
19090;DHT22;9677;50.656;13.064;2023-11-19T00:27:49;8.30;59.80
19090;DHT22;9677;50.656;13.064;2023-11-19T00:30:18;8.30;59.70
19090;DHT22;9677;50.656;13.064;2023-11-19T00:32:46;8.30;59.80
19090;DHT22;9677;50.656;13.064;2023-11-19T00:35:15;8.20;59.70
19090;DHT22;9677;50.656;13.064;2023-11-19T00:37:44;8.30;59.80
19090;DHT22;9677;50.656;13.064;2023-11-19T00:40:14;8.30;59.90
19090;DHT22;9677;50.656;13.064;2023-11-19T00:42:45;8.30;59.90
19090;DHT22;9677;50.656;13.064;2023-11-19T00:45:14;8.30;59.90
19090;DHT22;9677;50.656;13.064;2023-11-19T00:47:43;8.30;59.90
19090;DHT22;9677;50.656;13.064;2023-11-19T00:50:11;8.30;59.80
19090;DHT22;9677;50.656;13.064;2023-11-19T00:52:40;8.40;59.90
19090;DHT22;9677;50.656;13.064;2023-11-19T00:55:10;8.30;59.80
19090;DHT22;9677;50.656;13.064;2023-11-19T00:57:39;8.30;59.80
19090;DHT22;9677;50.656;13.064;2023-11-19T01:00:08;8.40;59.80
19090;DHT22;9677;50.656;13.064;2023-11-19T01:02:46;8.40;59.90
19090;DHT22;9677;50.656;13.064;2023-11-19T01:05:17;8.40;59.80
19090;DHT22;9677;50.656;13.064;2023-11-19T01:07:48;8.40;59.90
19090;DHT22;9677;50.656;13.064;2023-11-19T01:10:20;8.40;59.90
19090;DHT22;9677;50.656;13.064;2023-11-19T01:12:49;8.40;59.90
19090;DHT22;9677;50.656;13.064;2023-11-19T01:15:17;8.40;59.90
19090;DHT22;9677;50.656;13.064;2023-11-19T01:17:46;8.40;59.90
19090;DHT22;9677;50.656;13.064;2023-11-19T01:20:19;8.50;59.80
19090;DHT22;9677;50.656;13.064;2023-11-19T01:22:48;8.50;59.80
19090;DHT22;9677;50.656;13.064;2023-11-19T01:25:17;8.50;59.80
19090;DHT22;9677;50.656;13.064;2023-11-19T01:27:47;8.50;59.80
19090;DHT22;9677;50.656;13.064;2023-11-19T01:30:17;8.50;59.80
19090;DHT22;9677;50.656;13.064;2023-11-19T01:32:46;8.50;59.80
19090;DHT22;9677;50.656;13.064;2023-11-19T01:35:14;8.50;59.80
19090;DHT22;9677;50.656;13.064;2023-11-19T01:37:42;8.50;59.80
19090;DHT22;9677;50.656;13.064;2023-11-19T01:40:11;8.50;59.70
19090;DHT22;9677;50.656;13.064;2023-11-19T01:42:40;8.50;59.80
19090;DHT22;9677;50.656;13.064;2023-11-19T01:45:22;8.50;59.80
19090;DHT22;9677;50.656;13.064;2023-11-19T01:47:56;8.50;59.90
19090;DHT22;9677;50.656;13.064;2023-11-19T01:50:25;8.50;59.80
19090;DHT22;9677;50.656;13.064;2023-11-19T01:52:54;8.50;59.90
19090;DHT22;9677;50.656;13.064;2023-11-19T01:55:25;8.50;59.90
19090;DHT22;9677;50.656;13.064;2023-11-19T01:57:59;8.50;59.90
19090;DHT22;9677;50.656;13.064;2023-11-19T02:00:31;8.50;60.60
19090;DHT22;9677;50.656;13.064;2023-11-19T02:03:01;8.50;59.80
19090;DHT22;9677;50.656;13.064;2023-11-19T02:05:30;8.60;59.90
19090;DHT22;9677;50.656;13.064;2023-11-19T02:07:59;8.60;59.90
19090;DHT22;9677;50.656;13.064;2023-11-19T02:10:27;8.60;60.00
19090;DHT22;9677;50.656;13.064;2023-11-19T02:12:56;8.60;60.00
19090;DHT22;9677;50.656;13.064;2023-11-19T02:15:34;8.60;60.00
19090;DHT22;9677;50.656;13.064;2023-11-19T02:18:17;8.60;60.00
19090;DHT22;9677;50.656;13.064;2023-11-19T02:20:46;8.60;60.10
19090;DHT22;9677;50.656;13.064;2023-11-19T02:23:18;8.50;60.00
19090;DHT22;9677;50.656;13.064;2023-11-19T02:26:01;8.60;60.10
19090;DHT22;9677;50.656;13.064;2023-11-19T02:28:34;8.60;60.10
19090;DHT22;9677;50.656;13.064;2023-11-19T02:31:04;8.60;60.10
19090;DHT22;9677;50.656;13.064;2023-11-19T02:33:36;8.50;60.00
19090;DHT22;9677;50.656;13.064;2023-11-19T02:36:06;8.60;60.10
19090;DHT22;9677;50.656;13.064;2023-11-19T02:38:36;8.60;60.10
19090;DHT22;9677;50.656;13.064;2023-11-19T02:41:05;8.60;60.10
19090;DHT22;9677;50.656;13.064;2023-11-19T02:43:36;8.60;60.00
19090;DHT22;9677;50.656;13.064;2023-11-19T02:46:06;8.60;60.20
19090;DHT22;9677;50.656;13.064;2023-11-19T02:48:37;8.60;60.00
19090;DHT22;9677;50.656;13.064;2023-11-19T02:51:06;8.60;60.10
19090;DHT22;9677;50.656;13.064;2023-11-19T02:53:36;8.60;60.20
19090;DHT22;9677;50.656;13.064;2023-11-19T02:56:07;8.60;60.20
19090;DHT22;9677;50.656;13.064;2023-11-19T02:58:48;8.60;60.20
19090;DHT22;9677;50.656;13.064;2023-11-19T03:01:21;8.60;60.30
19090;DHT22;9677;50.656;13.064;2023-11-19T03:03:57;8.60;60.40
19090;DHT22;9677;50.656;13.064;2023-11-19T03:06:26;8.70;60.40
19090;DHT22;9677;50.656;13.064;2023-11-19T03:08:55;8.70;60.40
19090;DHT22;9677;50.656;13.064;2023-11-19T03:11:24;8.70;60.30
19090;DHT22;9677;50.656;13.064;2023-11-19T03:13:53;8.70;60.40
19090;DHT22;9677;50.656;13.064;2023-11-19T03:16:21;8.70;60.40
19090;DHT22;9677;50.656;13.064;2023-11-19T03:18:50;8.70;60.30
19090;DHT22;9677;50.656;13.064;2023-11-19T03:21:18;8.70;60.40
19090;DHT22;9677;50.656;13.064;2023-11-19T03:23:47;8.70;60.40
19090;DHT22;9677;50.656;13.064;2023-11-19T03:26:15;8.70;60.30
19090;DHT22;9677;50.656;13.064;2023-11-19T03:28:44;8.70;60.40
19090;DHT22;9677;50.656;13.064;2023-11-19T03:31:14;8.70;60.40
19090;DHT22;9677;50.656;13.064;2023-11-19T03:33:42;8.70;60.40
19090;DHT22;9677;50.656;13.064;2023-11-19T03:36:10;8.70;60.40
19090;DHT22;9677;50.656;13.064;2023-11-19T03:38:39;8.70;60.40
19090;DHT22;9677;50.656;13.064;2023-11-19T03:41:12;8.80;60.40
19090;DHT22;9677;50.656;13.064;2023-11-19T03:43:40;8.80;60.50
19090;DHT22;9677;50.656;13.064;2023-11-19T03:46:20;8.80;60.50
19090;DHT22;9677;50.656;13.064;2023-11-19T03:48:49;8.80;60.70
19090;DHT22;9677;50.656;13.064;2023-11-19T03:51:17;8.70;60.60
19090;DHT22;9677;50.656;13.064;2023-11-19T03:53:46;8.80;61.30
19090;DHT22;9677;50.656;13.064;2023-11-19T03:56:14;8.70;60.50
19090;DHT22;9677;50.656;13.064;2023-11-19T03:58:42;8.80;60.60
19090;DHT22;9677;50.656;13.064;2023-11-19T04:01:13;8.80;60.70
19090;DHT22;9677;50.656;13.064;2023-11-19T04:03:43;8.80;60.80
19090;DHT22;9677;50.656;13.064;2023-11-19T04:06:14;8.70;60.80
19090;DHT22;9677;50.656;13.064;2023-11-19T04:08:42;8.80;60.80
19090;DHT22;9677;50.656;13.064;2023-11-19T04:11:11;8.80;60.80
19090;DHT22;9677;50.656;13.064;2023-11-19T04:13:39;8.80;60.80
19090;DHT22;9677;50.656;13.064;2023-11-19T04:16:08;8.80;60.90
19090;DHT22;9677;50.656;13.064;2023-11-19T04:18:36;8.80;61.00
19090;DHT22;9677;50.656;13.064;2023-11-19T04:21:07;8.80;61.00
19090;DHT22;9677;50.656;13.064;2023-11-19T04:23:35;8.80;61.10
19090;DHT22;9677;50.656;13.064;2023-11-19T04:26:04;8.90;61.10
19090;DHT22;9677;50.656;13.064;2023-11-19T04:28:36;8.90;61.20
19090;DHT22;9677;50.656;13.064;2023-11-19T04:31:04;8.90;61.20
19090;DHT22;9677;50.656;13.064;2023-11-19T04:33:33;8.90;61.20
19090;DHT22;9677;50.656;13.064;2023-11-19T04:36:01;8.90;61.20
19090;DHT22;9677;50.656;13.064;2023-11-19T04:38:31;8.90;61.20
19090;DHT22;9677;50.656;13.064;2023-11-19T04:40:59;9.00;61.40
19090;DHT22;9677;50.656;13.064;2023-11-19T04:43:28;9.00;61.40
19090;DHT22;9677;50.656;13.064;2023-11-19T04:45:56;9.00;61.50
19090;DHT22;9677;50.656;13.064;2023-11-19T04:48:24;9.00;62.20
19090;DHT22;9677;50.656;13.064;2023-11-19T04:50:52;9.10;61.60
19090;DHT22;9677;50.656;13.064;2023-11-19T04:53:21;9.10;61.60
19090;DHT22;9677;50.656;13.064;2023-11-19T04:55:50;9.10;61.60
19090;DHT22;9677;50.656;13.064;2023-11-19T04:58:19;9.20;61.80
19090;DHT22;9677;50.656;13.064;2023-11-19T05:00:47;9.20;62.10
19090;DHT22;9677;50.656;13.064;2023-11-19T05:03:16;9.20;62.20
19090;DHT22;9677;50.656;13.064;2023-11-19T05:05:44;9.30;62.20
19090;DHT22;9677;50.656;13.064;2023-11-19T05:08:12;9.30;62.40
19090;DHT22;9677;50.656;13.064;2023-11-19T05:10:41;9.30;62.30
19090;DHT22;9677;50.656;13.064;2023-11-19T05:13:10;9.40;62.50
19090;DHT22;9677;50.656;13.064;2023-11-19T05:15:39;9.40;62.60
19090;DHT22;9677;50.656;13.064;2023-11-19T05:18:07;9.50;62.40
19090;DHT22;9677;50.656;13.064;2023-11-19T05:20:35;9.50;62.60
19090;DHT22;9677;50.656;13.064;2023-11-19T05:23:04;9.50;62.30
19090;DHT22;9677;50.656;13.064;2023-11-19T05:25:32;9.60;62.40
19090;DHT22;9677;50.656;13.064;2023-11-19T05:28:00;9.60;62.40
19090;DHT22;9677;50.656;13.064;2023-11-19T05:30:30;9.60;62.40
19090;DHT22;9677;50.656;13.064;2023-11-19T05:32:58;9.70;62.30
19090;DHT22;9677;50.656;13.064;2023-11-19T05:35:27;9.70;62.20
19090;DHT22;9677;50.656;13.064;2023-11-19T05:37:55;9.70;62.10
19090;DHT22;9677;50.656;13.064;2023-11-19T05:40:23;9.70;62.00
19090;DHT22;9677;50.656;13.064;2023-11-19T05:42:52;9.80;62.10
19090;DHT22;9677;50.656;13.064;2023-11-19T05:45:20;9.80;62.20
19090;DHT22;9677;50.656;13.064;2023-11-19T05:47:49;9.80;62.30
19090;DHT22;9677;50.656;13.064;2023-11-19T05:50:18;9.90;62.40
19090;DHT22;9677;50.656;13.064;2023-11-19T05:52:47;9.80;62.10
19090;DHT22;9677;50.656;13.064;2023-11-19T05:55:15;9.90;62.20
19090;DHT22;9677;50.656;13.064;2023-11-19T05:57:43;9.90;62.20
19090;DHT22;9677;50.656;13.064;2023-11-19T06:00:13;9.90;62.10
19090;DHT22;9677;50.656;13.064;2023-11-19T06:02:42;10.00;62.30
19090;DHT22;9677;50.656;13.064;2023-11-19T06:05:12;9.90;62.10
19090;DHT22;9677;50.656;13.064;2023-11-19T06:07:40;10.00;62.10
19090;DHT22;9677;50.656;13.064;2023-11-19T06:10:09;10.00;62.10
19090;DHT22;9677;50.656;13.064;2023-11-19T06:12:38;10.10;62.30
19090;DHT22;9677;50.656;13.064;2023-11-19T06:15:08;10.00;62.00
19090;DHT22;9677;50.656;13.064;2023-11-19T06:17:38;10.10;62.10
19090;DHT22;9677;50.656;13.064;2023-11-19T06:20:07;10.10;62.10
19090;DHT22;9677;50.656;13.064;2023-11-19T06:22:37;10.10;62.10
19090;DHT22;9677;50.656;13.064;2023-11-19T06:25:06;10.10;62.10
19090;DHT22;9677;50.656;13.064;2023-11-19T06:27:35;10.20;62.20
19090;DHT22;9677;50.656;13.064;2023-11-19T06:30:04;10.20;62.20
19090;DHT22;9677;50.656;13.064;2023-11-19T06:32:33;10.20;62.20
19090;DHT22;9677;50.656;13.064;2023-11-19T06:35:01;10.20;62.10
19090;DHT22;9677;50.656;13.064;2023-11-19T06:37:31;10.30;62.90
19090;DHT22;9677;50.656;13.064;2023-11-19T06:40:01;10.30;62.10
19090;DHT22;9677;50.656;13.064;2023-11-19T06:42:29;10.30;62.30
19090;DHT22;9677;50.656;13.064;2023-11-19T06:44:57;10.30;62.10
19090;DHT22;9677;50.656;13.064;2023-11-19T06:47:26;10.30;62.30
19090;DHT22;9677;50.656;13.064;2023-11-19T06:49:55;10.40;62.60
19090;DHT22;9677;50.656;13.064;2023-11-19T06:52:23;10.40;62.50
19090;DHT22;9677;50.656;13.064;2023-11-19T06:54:51;10.40;62.40
19090;DHT22;9677;50.656;13.064;2023-11-19T06:57:34;10.40;62.40
19090;DHT22;9677;50.656;13.064;2023-11-19T07:00:03;10.40;62.40
19090;DHT22;9677;50.656;13.064;2023-11-19T07:02:33;10.40;62.40
19090;DHT22;9677;50.656;13.064;2023-11-19T07:05:01;10.50;62.60
19090;DHT22;9677;50.656;13.064;2023-11-19T07:07:31;10.50;62.80
19090;DHT22;9677;50.656;13.064;2023-11-19T07:09:59;10.50;62.80
19090;DHT22;9677;50.656;13.064;2023-11-19T07:12:28;10.50;62.80
19090;DHT22;9677;50.656;13.064;2023-11-19T07:14:58;10.60;62.90
19090;DHT22;9677;50.656;13.064;2023-11-19T07:17:27;10.60;63.20
19090;DHT22;9677;50.656;13.064;2023-11-19T07:19:55;10.60;63.20
19090;DHT22;9677;50.656;13.064;2023-11-19T07:22:26;10.70;63.30
19090;DHT22;9677;50.656;13.064;2023-11-19T07:24:56;10.70;63.30
19090;DHT22;9677;50.656;13.064;2023-11-19T07:27:25;10.70;63.50
19090;DHT22;9677;50.656;13.064;2023-11-19T07:29:54;10.80;63.60
19090;DHT22;9677;50.656;13.064;2023-11-19T07:32:24;10.80;63.60
19090;DHT22;9677;50.656;13.064;2023-11-19T07:34:52;10.90;63.60
19090;DHT22;9677;50.656;13.064;2023-11-19T07:37:20;10.90;63.50
19090;DHT22;9677;50.656;13.064;2023-11-19T07:39:49;11.00;63.40
19090;DHT22;9677;50.656;13.064;2023-11-19T07:42:17;11.00;63.70
19090;DHT22;9677;50.656;13.064;2023-11-19T07:44:45;11.10;63.70
19090;DHT22;9677;50.656;13.064;2023-11-19T07:47:13;11.10;63.70
19090;DHT22;9677;50.656;13.064;2023-11-19T07:49:43;11.20;63.70
19090;DHT22;9677;50.656;13.064;2023-11-19T07:52:11;11.20;63.80
19090;DHT22;9677;50.656;13.064;2023-11-19T07:54:43;11.30;63.80
19090;DHT22;9677;50.656;13.064;2023-11-19T07:57:11;11.30;63.50
19090;DHT22;9677;50.656;13.064;2023-11-19T07:59:39;11.40;63.60
19090;DHT22;9677;50.656;13.064;2023-11-19T08:02:07;11.40;63.40
19090;DHT22;9677;50.656;13.064;2023-11-19T08:04:36;11.50;63.30
19090;DHT22;9677;50.656;13.064;2023-11-19T08:07:08;11.50;63.10
19090;DHT22;9677;50.656;13.064;2023-11-19T08:09:36;11.50;63.00
19090;DHT22;9677;50.656;13.064;2023-11-19T08:12:05;11.60;63.00
19090;DHT22;9677;50.656;13.064;2023-11-19T08:14:35;11.60;62.90
19090;DHT22;9677;50.656;13.064;2023-11-19T08:17:04;11.60;62.90
19090;DHT22;9677;50.656;13.064;2023-11-19T08:19:32;11.60;63.00
19090;DHT22;9677;50.656;13.064;2023-11-19T08:22:00;11.70;63.20
19090;DHT22;9677;50.656;13.064;2023-11-19T08:24:30;11.70;63.30
19090;DHT22;9677;50.656;13.064;2023-11-19T08:26:58;11.70;63.40
19090;DHT22;9677;50.656;13.064;2023-11-19T08:29:29;11.80;63.60
19090;DHT22;9677;50.656;13.064;2023-11-19T08:32:00;11.80;63.60
19090;DHT22;9677;50.656;13.064;2023-11-19T08:34:29;11.90;63.90
19090;DHT22;9677;50.656;13.064;2023-11-19T08:36:57;12.00;63.90
19090;DHT22;9677;50.656;13.064;2023-11-19T08:39:25;12.00;63.70
19090;DHT22;9677;50.656;13.064;2023-11-19T08:41:55;12.10;63.80
19090;DHT22;9677;50.656;13.064;2023-11-19T08:44:23;12.10;63.80
19090;DHT22;9677;50.656;13.064;2023-11-19T08:46:52;12.20;63.80
19090;DHT22;9677;50.656;13.064;2023-11-19T08:49:20;12.20;63.70
19090;DHT22;9677;50.656;13.064;2023-11-19T08:51:48;12.30;63.70
19090;DHT22;9677;50.656;13.064;2023-11-19T08:54:17;12.30;63.70
19090;DHT22;9677;50.656;13.064;2023-11-19T08:56:47;12.40;63.70
19090;DHT22;9677;50.656;13.064;2023-11-19T08:59:16;12.40;63.50
19090;DHT22;9677;50.656;13.064;2023-11-19T09:01:45;12.50;63.60
19090;DHT22;9677;50.656;13.064;2023-11-19T09:04:14;12.50;63.40
19090;DHT22;9677;50.656;13.064;2023-11-19T09:06:43;12.60;63.40
19090;DHT22;9677;50.656;13.064;2023-11-19T09:09:11;12.70;63.20
19090;DHT22;9677;50.656;13.064;2023-11-19T09:11:39;12.70;63.40
19090;DHT22;9677;50.656;13.064;2023-11-19T09:14:07;12.80;63.40
19090;DHT22;9677;50.656;13.064;2023-11-19T09:16:37;12.80;63.40
19090;DHT22;9677;50.656;13.064;2023-11-19T09:19:05;12.90;63.50
19090;DHT22;9677;50.656;13.064;2023-11-19T09:21:33;12.90;63.40
19090;DHT22;9677;50.656;13.064;2023-11-19T09:24:04;12.90;63.40
19090;DHT22;9677;50.656;13.064;2023-11-19T09:26:34;13.00;63.40
19090;DHT22;9677;50.656;13.064;2023-11-19T09:29:03;13.10;63.50
19090;DHT22;9677;50.656;13.064;2023-11-19T09:31:31;13.10;63.40
19090;DHT22;9677;50.656;13.064;2023-11-19T09:34:01;13.20;63.50
19090;DHT22;9677;50.656;13.064;2023-11-19T09:36:29;13.20;63.60
19090;DHT22;9677;50.656;13.064;2023-11-19T09:38:58;13.20;63.60
19090;DHT22;9677;50.656;13.064;2023-11-19T09:41:27;13.30;63.50
19090;DHT22;9677;50.656;13.064;2023-11-19T09:43:55;13.30;63.30
19090;DHT22;9677;50.656;13.064;2023-11-19T09:46:24;13.40;63.30
19090;DHT22;9677;50.656;13.064;2023-11-19T09:48:53;13.40;63.30
19090;DHT22;9677;50.656;13.064;2023-11-19T09:51:23;13.40;63.30
19090;DHT22;9677;50.656;13.064;2023-11-19T09:53:52;13.50;63.30
19090;DHT22;9677;50.656;13.064;2023-11-19T09:56:20;13.50;63.20
19090;DHT22;9677;50.656;13.064;2023-11-19T09:58:49;13.50;63.30
19090;DHT22;9677;50.656;13.064;2023-11-19T10:01:17;13.60;63.30
19090;DHT22;9677;50.656;13.064;2023-11-19T10:03:55;13.60;63.10
19090;DHT22;9677;50.656;13.064;2023-11-19T10:06:26;13.60;63.20
19090;DHT22;9677;50.656;13.064;2023-11-19T10:08:55;13.70;63.00
19090;DHT22;9677;50.656;13.064;2023-11-19T10:11:23;13.70;63.00
19090;DHT22;9677;50.656;13.064;2023-11-19T10:13:52;13.70;62.90
19090;DHT22;9677;50.656;13.064;2023-11-19T10:16:28;13.70;62.90
19090;DHT22;9677;50.656;13.064;2023-11-19T10:18:58;13.70;62.80
19090;DHT22;9677;50.656;13.064;2023-11-19T10:21:27;13.80;62.70
19090;DHT22;9677;50.656;13.064;2023-11-19T10:23:58;13.80;62.70
19090;DHT22;9677;50.656;13.064;2023-11-19T10:26:27;13.80;62.60
19090;DHT22;9677;50.656;13.064;2023-11-19T10:28:56;13.80;62.40
19090;DHT22;9677;50.656;13.064;2023-11-19T10:31:24;13.80;62.40
19090;DHT22;9677;50.656;13.064;2023-11-19T10:33:54;13.80;62.40
19090;DHT22;9677;50.656;13.064;2023-11-19T10:36:39;13.90;62.50
19090;DHT22;9677;50.656;13.064;2023-11-19T10:39:09;13.90;62.50
19090;DHT22;9677;50.656;13.064;2023-11-19T10:41:37;13.90;62.20
19090;DHT22;9677;50.656;13.064;2023-11-19T10:44:05;14.10;62.40
19090;DHT22;9677;50.656;13.064;2023-11-19T10:46:37;14.00;62.20
19090;DHT22;9677;50.656;13.064;2023-11-19T10:49:07;14.00;62.20
19090;DHT22;9677;50.656;13.064;2023-11-19T10:51:36;14.00;62.10
19090;DHT22;9677;50.656;13.064;2023-11-19T10:54:06;14.10;61.90
19090;DHT22;9677;50.656;13.064;2023-11-19T10:56:34;14.10;61.80
19090;DHT22;9677;50.656;13.064;2023-11-19T10:59:02;14.10;61.70
19090;DHT22;9677;50.656;13.064;2023-11-19T11:01:52;14.20;61.80
19090;DHT22;9677;50.656;13.064;2023-11-19T11:04:24;14.20;61.50
19090;DHT22;9677;50.656;13.064;2023-11-19T11:06:55;14.40;61.50
19090;DHT22;9677;50.656;13.064;2023-11-19T11:09:27;14.30;61.20
19090;DHT22;9677;50.656;13.064;2023-11-19T11:11:55;14.30;61.00
19090;DHT22;9677;50.656;13.064;2023-11-19T11:14:26;14.30;60.90
19090;DHT22;9677;50.656;13.064;2023-11-19T11:16:56;14.30;60.80
19090;DHT22;9677;50.656;13.064;2023-11-19T11:19:24;14.30;60.60
19090;DHT22;9677;50.656;13.064;2023-11-19T11:21:54;14.40;60.60
19090;DHT22;9677;50.656;13.064;2023-11-19T11:24:53;14.30;60.40
19090;DHT22;9677;50.656;13.064;2023-11-19T11:27:50;14.30;60.30
19090;DHT22;9677;50.656;13.064;2023-11-19T11:30:49;14.30;60.30
19090;DHT22;9677;50.656;13.064;2023-11-19T11:33:34;14.40;60.30
19090;DHT22;9677;50.656;13.064;2023-11-19T11:36:15;14.30;60.20
19090;DHT22;9677;50.656;13.064;2023-11-19T11:38:48;14.40;60.90
19090;DHT22;9677;50.656;13.064;2023-11-19T11:41:20;14.30;60.10
19090;DHT22;9677;50.656;13.064;2023-11-19T11:43:54;14.40;60.10
19090;DHT22;9677;50.656;13.064;2023-11-19T11:46:54;14.40;60.10
19090;DHT22;9677;50.656;13.064;2023-11-19T11:49:27;14.40;60.10
19090;DHT22;9677;50.656;13.064;2023-11-19T11:52:01;14.40;60.00
19090;DHT22;9677;50.656;13.064;2023-11-19T11:54:34;14.40;60.10
19090;DHT22;9677;50.656;13.064;2023-11-19T11:57:07;14.40;60.20
19090;DHT22;9677;50.656;13.064;2023-11-19T11:59:48;14.40;60.60
19090;DHT22;9677;50.656;13.064;2023-11-19T12:02:18;14.40;60.70
19090;DHT22;9677;50.656;13.064;2023-11-19T12:04:49;14.50;60.90
19090;DHT22;9677;50.656;13.064;2023-11-19T12:07:21;14.50;60.90
19090;DHT22;9677;50.656;13.064;2023-11-19T12:09:53;14.60;60.90
19090;DHT22;9677;50.656;13.064;2023-11-19T12:12:27;14.60;60.90
19090;DHT22;9677;50.656;13.064;2023-11-19T12:15:04;14.90;61.10
19090;DHT22;9677;50.656;13.064;2023-11-19T12:17:41;14.70;60.90
19090;DHT22;9677;50.656;13.064;2023-11-19T12:20:12;14.80;60.90
19090;DHT22;9677;50.656;13.064;2023-11-19T12:22:42;14.90;61.00
19090;DHT22;9677;50.656;13.064;2023-11-19T12:25:11;14.90;61.10
19090;DHT22;9677;50.656;13.064;2023-11-19T12:27:44;15.00;61.00
19090;DHT22;9677;50.656;13.064;2023-11-19T12:30:16;15.10;60.80
19090;DHT22;9677;50.656;13.064;2023-11-19T12:32:45;15.10;60.70
19090;DHT22;9677;50.656;13.064;2023-11-19T12:35:13;15.20;60.60
19090;DHT22;9677;50.656;13.064;2023-11-19T12:37:42;15.40;60.50
19090;DHT22;9677;50.656;13.064;2023-11-19T12:42:45;15.40;60.30
19090;DHT22;9677;50.656;13.064;2023-11-19T12:45:14;15.40;59.80
19090;DHT22;9677;50.656;13.064;2023-11-19T12:47:43;15.40;59.40
19090;DHT22;9677;50.656;13.064;2023-11-19T12:50:14;15.40;59.00
19090;DHT22;9677;50.656;13.064;2023-11-19T12:52:55;15.30;58.90
19090;DHT22;9677;50.656;13.064;2023-11-19T12:55:28;15.30;58.90
19090;DHT22;9677;50.656;13.064;2023-11-19T12:57:58;15.30;59.00
19090;DHT22;9677;50.656;13.064;2023-11-19T13:00:27;15.60;59.10
19090;DHT22;9677;50.656;13.064;2023-11-19T13:02:56;15.10;59.00
19090;DHT22;9677;50.656;13.064;2023-11-19T13:05:27;15.00;59.00
19090;DHT22;9677;50.656;13.064;2023-11-19T13:07:59;15.40;59.20
19090;DHT22;9677;50.656;13.064;2023-11-19T13:10:28;14.90;58.90
19090;DHT22;9677;50.656;13.064;2023-11-19T13:13:03;14.80;58.40
19090;DHT22;9677;50.656;13.064;2023-11-19T13:15:33;14.70;58.50
19090;DHT22;9677;50.656;13.064;2023-11-19T13:18:02;14.60;58.60
19090;DHT22;9677;50.656;13.064;2023-11-19T13:20:30;14.50;58.60
19090;DHT22;9677;50.656;13.064;2023-11-19T13:23:01;14.50;58.70
19090;DHT22;9677;50.656;13.064;2023-11-19T13:25:30;14.60;59.00
19090;DHT22;9677;50.656;13.064;2023-11-19T13:27:59;14.30;59.00
19090;DHT22;9677;50.656;13.064;2023-11-19T13:30:28;14.60;59.30
19090;DHT22;9677;50.656;13.064;2023-11-19T13:32:57;14.40;59.30
19090;DHT22;9677;50.656;13.064;2023-11-19T13:35:25;14.30;59.40
19090;DHT22;9677;50.656;13.064;2023-11-19T13:37:54;14.30;59.40
19090;DHT22;9677;50.656;13.064;2023-11-19T13:40:23;14.50;59.60
19090;DHT22;9677;50.656;13.064;2023-11-19T13:42:52;14.20;59.50
19090;DHT22;9677;50.656;13.064;2023-11-19T13:45:20;14.20;59.50
19090;DHT22;9677;50.656;13.064;2023-11-19T13:47:49;14.20;59.50
19090;DHT22;9677;50.656;13.064;2023-11-19T13:50:18;14.30;59.50
19090;DHT22;9677;50.656;13.064;2023-11-19T13:52:45;14.30;59.40
19090;DHT22;9677;50.656;13.064;2023-11-19T13:55:14;14.20;59.30
19090;DHT22;9677;50.656;13.064;2023-11-19T13:57:43;14.30;59.40
19090;DHT22;9677;50.656;13.064;2023-11-19T14:00:12;14.20;59.50
19090;DHT22;9677;50.656;13.064;2023-11-19T14:02:43;14.10;59.50
19090;DHT22;9677;50.656;13.064;2023-11-19T14:05:14;14.20;59.50
19090;DHT22;9677;50.656;13.064;2023-11-19T14:08:03;14.10;59.40
19090;DHT22;9677;50.656;13.064;2023-11-19T14:10:49;14.10;59.40
19090;DHT22;9677;50.656;13.064;2023-11-19T14:13:17;14.10;59.50
19090;DHT22;9677;50.656;13.064;2023-11-19T14:15:45;14.00;59.50
19090;DHT22;9677;50.656;13.064;2023-11-19T14:18:16;14.00;59.60
19090;DHT22;9677;50.656;13.064;2023-11-19T14:20:46;14.10;59.80
19090;DHT22;9677;50.656;13.064;2023-11-19T14:23:14;14.00;59.80
19090;DHT22;9677;50.656;13.064;2023-11-19T14:25:43;14.00;59.80
19090;DHT22;9677;50.656;13.064;2023-11-19T14:28:11;14.10;59.80
19090;DHT22;9677;50.656;13.064;2023-11-19T14:30:39;14.00;59.80
19090;DHT22;9677;50.656;13.064;2023-11-19T14:33:08;14.10;59.90
19090;DHT22;9677;50.656;13.064;2023-11-19T14:35:36;14.00;59.80
19090;DHT22;9677;50.656;13.064;2023-11-19T14:38:06;14.00;59.80
19090;DHT22;9677;50.656;13.064;2023-11-19T14:40:36;14.00;59.80
19090;DHT22;9677;50.656;13.064;2023-11-19T14:43:07;14.00;59.70
19090;DHT22;9677;50.656;13.064;2023-11-19T14:45:37;14.00;59.70
19090;DHT22;9677;50.656;13.064;2023-11-19T14:48:15;14.10;59.70
19090;DHT22;9677;50.656;13.064;2023-11-19T14:50:44;14.00;59.50
19090;DHT22;9677;50.656;13.064;2023-11-19T14:53:14;14.00;59.40
19090;DHT22;9677;50.656;13.064;2023-11-19T14:55:42;14.00;59.40
19090;DHT22;9677;50.656;13.064;2023-11-19T14:58:10;14.10;59.50
19090;DHT22;9677;50.656;13.064;2023-11-19T15:00:43;14.00;59.40
19090;DHT22;9677;50.656;13.064;2023-11-19T15:03:13;13.90;59.30
19090;DHT22;9677;50.656;13.064;2023-11-19T15:05:43;13.90;59.30
19090;DHT22;9677;50.656;13.064;2023-11-19T15:08:14;13.90;59.30
19090;DHT22;9677;50.656;13.064;2023-11-19T15:10:42;13.90;59.30
19090;DHT22;9677;50.656;13.064;2023-11-19T15:13:11;13.90;59.30
19090;DHT22;9677;50.656;13.064;2023-11-19T15:15:39;13.90;59.30
19090;DHT22;9677;50.656;13.064;2023-11-19T15:18:08;13.80;59.20
19090;DHT22;9677;50.656;13.064;2023-11-19T15:20:37;13.80;59.20
19090;DHT22;9677;50.656;13.064;2023-11-19T15:23:05;13.80;59.20
19090;DHT22;9677;50.656;13.064;2023-11-19T15:25:37;13.80;59.20
19090;DHT22;9677;50.656;13.064;2023-11-19T15:28:05;13.70;59.20
19090;DHT22;9677;50.656;13.064;2023-11-19T15:30:34;14.00;59.30
19090;DHT22;9677;50.656;13.064;2023-11-19T15:33:02;13.70;59.10
19090;DHT22;9677;50.656;13.064;2023-11-19T15:35:30;13.70;59.10
19090;DHT22;9677;50.656;13.064;2023-11-19T15:37:58;13.60;59.00
19090;DHT22;9677;50.656;13.064;2023-11-19T15:40:27;13.60;59.00
19090;DHT22;9677;50.656;13.064;2023-11-19T15:42:56;13.60;59.00
19090;DHT22;9677;50.656;13.064;2023-11-19T15:45:25;13.50;59.00
19090;DHT22;9677;50.656;13.064;2023-11-19T15:47:54;13.50;59.00
19090;DHT22;9677;50.656;13.064;2023-11-19T15:50:22;13.50;59.00
19090;DHT22;9677;50.656;13.064;2023-11-19T15:52:50;13.50;59.00
19090;DHT22;9677;50.656;13.064;2023-11-19T15:55:19;13.40;58.90
19090;DHT22;9677;50.656;13.064;2023-11-19T15:57:47;13.40;58.90